createdAt,value
2019-03-09T00:01:21.504Z,47.80
2019-03-09T00:03:24.525Z,47.80
2019-03-09T00:05:27.506Z,47.80
2019-03-09T00:07:30.528Z,47.80
2019-03-09T00:09:34.196Z,47.80
2019-03-09T00:11:38.368Z,47.80
2019-03-09T00:13:41.275Z,47.80
2019-03-09T00:15:44.682Z,47.80
2019-03-09T00:17:48.371Z,48.60
2019-03-09T00:19:51.252Z,47.90
2019-03-09T00:21:54.236Z,47.90
2019-03-09T00:23:59.708Z,47.50
2019-03-09T00:26:08.406Z,48.00
2019-03-09T00:28:11.817Z,47.90
2019-03-09T00:30:26.102Z,48.00
2019-03-09T00:32:29.539Z,47.90
2019-03-09T00:34:32.519Z,48.50
2019-03-09T00:36:36.921Z,48.10
2019-03-09T00:38:40.611Z,48.00
2019-03-09T00:40:43.509Z,48.00
2019-03-09T00:42:46.420Z,48.10
2019-03-09T00:44:50.061Z,48.10
2019-03-09T00:46:53.064Z,48.10
2019-03-09T00:48:55.958Z,48.10
2019-03-09T00:50:58.946Z,48.10
2019-03-09T00:53:03.866Z,48.10
2019-03-09T00:55:08.869Z,48.20
2019-03-09T00:57:11.749Z,48.10
2019-03-09T00:59:14.642Z,48.10
2019-03-09T01:01:17.528Z,48.10
2019-03-09T01:03:20.415Z,48.10
2019-03-09T01:05:23.431Z,48.10
2019-03-09T01:07:26.388Z,48.10
2019-03-09T01:09:29.367Z,48.20
2019-03-09T01:11:33.068Z,48.20
2019-03-09T01:13:37.848Z,48.20
2019-03-09T01:15:41.593Z,48.20
2019-03-09T01:17:44.698Z,48.00
2019-03-09T01:19:47.854Z,48.20
2019-03-09T01:21:50.747Z,48.20
2019-03-09T01:23:53.674Z,48.20
2019-03-09T01:25:57.666Z,48.20
2019-03-09T01:28:01.299Z,48.20
2019-03-09T01:30:04.204Z,48.20
2019-03-09T01:32:07.126Z,48.20
2019-03-09T01:34:10.768Z,48.30
2019-03-09T01:36:13.842Z,48.20
2019-03-09T01:38:16.937Z,48.20
2019-03-09T01:40:19.829Z,48.20
2019-03-09T01:42:22.965Z,48.20
2019-03-09T01:44:26.665Z,48.20
2019-03-09T01:46:30.319Z,48.20
2019-03-09T01:48:33.328Z,48.10
2019-03-09T01:50:36.984Z,48.20
2019-03-09T01:52:39.904Z,48.10
2019-03-09T01:54:43.572Z,47.80
2019-03-09T01:56:47.327Z,48.10
2019-03-09T01:58:51.095Z,48.10
2019-03-09T02:00:54.111Z,48.00
2019-03-09T02:02:57.736Z,48.80
2019-03-09T02:05:00.625Z,48.00
2019-03-09T02:07:03.545Z,48.00
2019-03-09T02:09:06.589Z,48.00
2019-03-09T02:11:09.471Z,48.00
2019-03-09T02:13:12.396Z,48.10
2019-03-09T02:15:15.272Z,48.00
2019-03-09T02:17:18.397Z,48.00
2019-03-09T02:19:22.060Z,48.10
2019-03-09T02:21:26.452Z,48.00
2019-03-09T02:23:29.453Z,48.00
2019-03-09T02:25:32.358Z,48.00
2019-03-09T02:27:36.102Z,48.30
2019-03-09T02:29:39.018Z,48.00
2019-03-09T02:31:41.901Z,48.10
2019-03-09T02:33:45.301Z,48.10
2019-03-09T02:35:48.288Z,48.10
2019-03-09T02:37:51.936Z,48.10
2019-03-09T02:39:57.459Z,48.10
2019-03-09T02:42:01.108Z,48.20
2019-03-09T02:44:04.001Z,48.20
2019-03-09T02:46:06.910Z,48.20
2019-03-09T02:48:11.018Z,48.30
2019-03-09T02:50:14.656Z,48.40
2019-03-09T02:52:17.996Z,48.30
2019-03-09T02:54:20.986Z,48.40
2019-03-09T02:56:24.634Z,48.50
2019-03-09T02:58:28.154Z,48.40
2019-03-09T03:00:31.048Z,48.50
2019-03-09T03:02:33.923Z,48.60
2019-03-09T03:04:37.521Z,48.80
2019-03-09T03:06:41.189Z,49.70
2019-03-09T03:08:44.409Z,49.10
2019-03-09T03:10:47.453Z,49.30
2019-03-09T03:12:50.354Z,50.00
2019-03-09T03:14:53.693Z,49.50
2019-03-09T03:16:56.612Z,49.60
2019-03-09T03:18:59.945Z,49.70
2019-03-09T03:21:03.636Z,50.10
2019-03-09T03:23:06.618Z,50.00
2019-03-09T03:25:09.540Z,50.30
2019-03-09T03:27:13.161Z,51.00
2019-03-09T03:29:16.074Z,50.90
2019-03-09T03:31:18.960Z,51.10
2019-03-09T03:33:23.353Z,51.30
2019-03-09T03:35:26.491Z,51.10
2019-03-09T03:37:30.848Z,51.40
2019-03-09T03:39:33.723Z,51.50
2019-03-09T03:41:36.639Z,51.60
2019-03-09T03:43:39.532Z,51.70
2019-03-09T03:45:42.509Z,51.80
2019-03-09T03:47:46.204Z,52.10
2019-03-09T03:49:49.315Z,52.10
2019-03-09T03:51:52.963Z,52.70
2019-03-09T03:53:56.135Z,52.40
2019-03-09T03:55:59.015Z,52.60
2019-03-09T03:58:02.721Z,53.00
2019-03-09T04:00:07.568Z,53.00
2019-03-09T04:02:10.462Z,53.20
2019-03-09T04:04:14.665Z,53.40
2019-03-09T04:06:17.550Z,53.40
2019-03-09T04:08:20.565Z,53.40
2019-03-09T04:10:24.237Z,53.60
2019-03-09T04:12:27.671Z,53.60
2019-03-09T04:14:30.616Z,53.60
2019-03-09T04:16:33.713Z,53.80
2019-03-09T04:18:37.407Z,54.00
2019-03-09T04:20:40.321Z,54.00
2019-03-09T04:22:43.565Z,54.10
2019-03-09T04:24:46.445Z,54.20
2019-03-09T04:26:49.329Z,54.10
2019-03-09T04:28:52.416Z,54.30
2019-03-09T04:30:55.531Z,54.30
2019-03-09T04:32:59.196Z,54.40
2019-03-09T04:35:02.233Z,54.40
2019-03-09T04:37:06.292Z,54.60
2019-03-09T04:39:09.211Z,54.60
2019-03-09T04:41:12.175Z,54.70
2019-03-09T04:43:15.828Z,54.90
2019-03-09T04:45:18.750Z,54.90
2019-03-09T04:47:22.445Z,55.10
2019-03-09T04:49:26.140Z,55.20
2019-03-09T04:51:29.071Z,55.20
2019-03-09T04:53:31.955Z,55.30
2019-03-09T04:55:35.345Z,55.90
2019-03-09T04:57:38.680Z,55.40
2019-03-09T04:59:43.076Z,55.50
2019-03-09T05:01:46.013Z,55.50
2019-03-09T05:03:53.768Z,55.60
2019-03-09T05:05:56.651Z,55.60
2019-03-09T05:08:00.323Z,55.60
2019-03-09T05:10:24.260Z,55.70
2019-03-09T05:12:27.260Z,55.80
2019-03-09T05:14:30.311Z,55.60
2019-03-09T05:16:33.996Z,55.90
2019-03-09T05:18:38.382Z,56.00
2019-03-09T05:20:41.297Z,56.00
2019-03-09T05:22:44.308Z,56.00
2019-03-09T05:24:47.975Z,56.10
2019-03-09T05:26:50.889Z,56.10
2019-03-09T05:28:54.559Z,56.30
2019-03-09T05:30:58.949Z,56.40
2019-03-09T05:33:01.879Z,56.30
2019-03-09T05:35:05.544Z,56.40
2019-03-09T05:37:08.947Z,56.40
2019-03-09T05:39:11.836Z,56.40
2019-03-09T05:41:14.843Z,56.50
2019-03-09T05:43:17.708Z,56.60
2019-03-09T05:45:21.354Z,56.70
2019-03-09T05:47:24.257Z,56.70
2019-03-09T05:49:27.140Z,56.70
2019-03-09T05:51:30.037Z,56.80
2019-03-09T05:53:32.930Z,56.80
2019-03-09T05:55:36.657Z,57.00
2019-03-09T05:57:39.911Z,57.00
2019-03-09T05:59:42.789Z,57.00
2019-03-09T06:01:45.722Z,57.00
2019-03-09T06:03:49.296Z,57.10
2019-03-09T06:05:52.993Z,57.30
2019-03-09T06:07:56.663Z,57.30
2019-03-09T06:09:59.547Z,57.30
2019-03-09T06:12:03.267Z,57.40
2019-03-09T06:14:06.944Z,57.60
2019-03-09T06:16:09.853Z,57.50
2019-03-09T06:18:14.196Z,57.40
2019-03-09T06:20:17.994Z,57.70
2019-03-09T06:22:20.928Z,57.80
2019-03-09T06:24:23.939Z,57.90
2019-03-09T06:26:27.598Z,58.20
2019-03-09T06:28:30.502Z,58.00
2019-03-09T06:30:33.776Z,58.20
2019-03-09T06:32:57.968Z,59.10
2019-03-09T06:35:00.935Z,58.40
2019-03-09T06:37:03.923Z,58.30
2019-03-09T06:39:06.816Z,58.30
2019-03-09T06:41:11.388Z,58.70
2019-03-09T06:43:14.932Z,58.60
2019-03-09T06:45:18.631Z,58.80
2019-03-09T06:47:22.350Z,58.80
2019-03-09T06:49:25.996Z,58.90
2019-03-09T06:51:28.911Z,58.90
2019-03-09T06:53:32.584Z,59.40
2019-03-09T06:55:35.497Z,59.10
2019-03-09T06:57:39.153Z,59.20
2019-03-09T06:59:42.572Z,59.20
2019-03-09T07:01:45.487Z,59.20
2019-03-09T07:03:49.125Z,59.40
2019-03-09T07:05:52.046Z,59.30
2019-03-09T07:07:55.848Z,59.50
2019-03-09T07:09:59.540Z,59.80
2019-03-09T07:12:02.526Z,59.50
2019-03-09T07:14:17.277Z,59.60
2019-03-09T07:16:20.147Z,59.70
2019-03-09T07:18:23.114Z,59.70
2019-03-09T07:20:26.501Z,59.80
2019-03-09T07:22:29.425Z,60.00
2019-03-09T07:24:33.857Z,60.20
2019-03-09T07:26:37.734Z,60.30
2019-03-09T07:28:40.665Z,60.20
2019-03-09T07:30:45.021Z,60.50
2019-03-09T07:32:47.927Z,60.50
2019-03-09T07:34:51.056Z,60.70
2019-03-09T07:36:53.928Z,60.80
2019-03-09T07:38:56.951Z,60.90
2019-03-09T07:41:00.004Z,60.80
2019-03-09T07:43:04.271Z,61.00
2019-03-09T07:45:07.573Z,61.00
2019-03-09T07:47:10.472Z,61.10
2019-03-09T07:49:14.169Z,61.40
2019-03-09T07:51:17.804Z,62.20
2019-03-09T07:53:20.726Z,61.40
2019-03-09T07:55:25.123Z,61.50
2019-03-09T07:57:28.000Z,61.60
2019-03-09T07:59:31.001Z,61.60
2019-03-09T08:01:33.883Z,61.60
2019-03-09T08:03:36.894Z,61.80
2019-03-09T08:05:40.668Z,62.40
2019-03-09T08:07:45.072Z,61.70
2019-03-09T08:09:47.962Z,61.60
2019-03-09T08:11:50.953Z,61.40
2019-03-09T08:13:53.824Z,61.60
2019-03-09T08:15:56.709Z,61.80
2019-03-09T08:17:59.697Z,61.90
2019-03-09T08:20:02.585Z,62.00
2019-03-09T08:22:05.486Z,62.10
2019-03-09T08:24:09.872Z,62.30
2019-03-09T08:26:12.740Z,62.20
2019-03-09T08:28:16.413Z,62.20
2019-03-09T08:30:20.868Z,61.80
2019-03-09T08:32:23.816Z,62.30
2019-03-09T08:34:26.738Z,62.30
2019-03-09T08:36:30.426Z,62.70
2019-03-09T08:38:34.132Z,62.30
2019-03-09T08:40:38.544Z,62.20
2019-03-09T08:42:41.665Z,62.20
2019-03-09T08:44:45.364Z,62.30
2019-03-09T08:46:48.347Z,62.20
2019-03-09T08:48:52.150Z,62.30
2019-03-09T08:50:55.796Z,62.30
2019-03-09T08:52:59.481Z,62.20
2019-03-09T08:55:02.518Z,62.20
2019-03-09T08:57:05.507Z,62.20
2019-03-09T08:59:08.472Z,62.10
2019-03-09T09:01:11.382Z,62.10
2019-03-09T09:03:15.028Z,62.00
2019-03-09T09:05:17.913Z,62.00
2019-03-09T09:07:20.840Z,62.00
2019-03-09T09:09:24.478Z,61.70
2019-03-09T09:11:28.080Z,61.70
2019-03-09T09:13:31.105Z,61.60
2019-03-09T09:15:35.054Z,61.60
2019-03-09T09:17:37.971Z,61.50
2019-03-09T09:19:40.956Z,61.40
2019-03-09T09:21:43.873Z,61.30
2019-03-09T09:23:48.369Z,61.30
2019-03-09T09:25:52.477Z,61.30
2019-03-09T09:27:56.161Z,62.60
2019-03-09T09:29:59.676Z,61.80
2019-03-09T09:32:03.472Z,64.30
2019-03-09T09:34:06.359Z,63.30
2019-03-09T09:36:09.276Z,63.60
2019-03-09T09:38:12.320Z,63.80
2019-03-09T09:40:18.828Z,64.10
2019-03-09T09:42:21.770Z,64.00
2019-03-09T09:44:26.198Z,63.80
2019-03-09T09:46:29.855Z,63.70
2019-03-09T09:48:33.478Z,63.70
2019-03-09T09:50:36.507Z,63.70
2019-03-09T09:52:39.389Z,63.60
2019-03-09T09:54:42.432Z,63.60
2019-03-09T09:56:45.333Z,63.30
2019-03-09T09:58:48.336Z,63.40
2019-03-09T10:00:51.281Z,63.30
2019-03-09T10:02:55.846Z,63.00
2019-03-09T10:04:58.728Z,62.90
2019-03-09T10:07:01.636Z,62.50
2019-03-09T10:09:04.552Z,62.10
2019-03-09T10:11:08.977Z,61.50
2019-03-09T10:13:12.642Z,61.30
2019-03-09T10:15:24.208Z,61.30
2019-03-09T10:17:28.426Z,61.10
2019-03-09T10:19:31.284Z,60.90
2019-03-09T10:21:35.008Z,60.80
2019-03-09T10:23:37.936Z,60.70
2019-03-09T10:25:41.604Z,61.30
2019-03-09T10:27:44.677Z,60.60
2019-03-09T10:29:47.577Z,60.50
2019-03-09T10:31:50.448Z,60.40
2019-03-09T10:33:53.552Z,60.30
2019-03-09T10:35:56.428Z,60.30
2019-03-09T10:37:59.306Z,60.20
2019-03-09T10:40:02.309Z,60.20
2019-03-09T10:42:05.964Z,60.10
2019-03-09T10:44:08.846Z,60.00
2019-03-09T10:46:11.848Z,59.90
2019-03-09T10:48:16.233Z,59.90
2019-03-09T10:50:19.104Z,59.80
2019-03-09T10:52:22.016Z,59.80
2019-03-09T10:54:35.501Z,59.80
2019-03-09T10:56:28.429Z,59.90
2019-03-09T10:58:32.708Z,59.80
2019-03-09T11:00:36.304Z,59.70
2019-03-09T11:02:39.185Z,59.70
2019-03-09T11:04:43.612Z,59.80
2019-03-09T11:06:46.757Z,59.70
2019-03-09T11:08:49.643Z,59.70
2019-03-09T11:10:52.663Z,59.70
2019-03-09T11:12:56.667Z,59.70
2019-03-09T11:15:00.517Z,59.60
2019-03-09T11:17:03.586Z,59.60
2019-03-09T11:19:07.353Z,59.70
2019-03-09T11:21:10.244Z,59.60
2019-03-09T11:23:13.920Z,59.70
2019-03-09T11:25:16.850Z,59.70
2019-03-09T11:27:21.001Z,59.60
2019-03-09T11:29:23.943Z,59.50
2019-03-09T11:31:27.617Z,59.40
2019-03-09T11:33:31.523Z,60.00
2019-03-09T11:35:34.633Z,59.40
2019-03-09T11:37:38.548Z,59.50
2019-03-09T11:39:42.717Z,59.30
2019-03-09T11:41:45.709Z,59.20
2019-03-09T11:43:50.221Z,59.10
2019-03-09T11:45:53.113Z,59.10
2019-03-09T11:47:56.395Z,59.00
2019-03-09T11:50:00.803Z,58.90
2019-03-09T11:52:03.692Z,58.80
2019-03-09T11:54:06.672Z,58.80
2019-03-09T11:56:10.182Z,58.80
2019-03-09T11:58:14.276Z,58.90
2019-03-09T12:00:26.265Z,58.70
2019-03-09T12:02:38.632Z,58.60
2019-03-09T12:04:32.739Z,58.50
2019-03-09T12:06:35.864Z,58.50
2019-03-09T12:08:40.204Z,58.50
2019-03-09T12:10:44.912Z,58.50
2019-03-09T12:12:47.888Z,58.50
2019-03-09T12:14:51.800Z,59.00
2019-03-09T12:16:54.683Z,58.50
2019-03-09T12:18:57.588Z,58.50
2019-03-09T12:21:00.472Z,58.60
2019-03-09T12:23:06.868Z,58.60
2019-03-09T12:25:10.880Z,58.70
2019-03-09T12:27:13.864Z,58.70
2019-03-09T12:29:16.747Z,58.80
2019-03-09T12:31:20.863Z,59.00
2019-03-09T12:33:23.853Z,58.90
2019-03-09T12:35:28.279Z,59.10
2019-03-09T12:37:31.948Z,59.10
2019-03-09T12:39:35.882Z,59.00
2019-03-09T12:41:38.774Z,59.10
2019-03-09T12:43:42.036Z,59.00
2019-03-09T12:45:44.935Z,59.00
2019-03-09T12:47:48.588Z,59.00
2019-03-09T12:49:52.378Z,59.00
2019-03-09T12:51:55.279Z,59.00
2019-03-09T12:53:58.148Z,59.00
2019-03-09T12:56:01.100Z,59.00
2019-03-09T12:58:04.449Z,59.00
2019-03-09T13:00:09.126Z,58.90
2019-03-09T13:02:12.051Z,58.90
2019-03-09T13:04:15.713Z,59.00
2019-03-09T13:06:18.663Z,59.00
2019-03-09T13:08:23.452Z,59.00
2019-03-09T13:10:24.623Z,59.10
2019-03-09T13:12:28.261Z,59.20
2019-03-09T13:14:31.293Z,59.10
2019-03-09T13:16:34.982Z,59.70
2019-03-09T13:18:38.636Z,59.70
2019-03-09T13:20:41.583Z,59.10
2019-03-09T13:22:44.473Z,59.10
2019-03-09T13:24:47.435Z,59.10
2019-03-09T13:26:51.276Z,59.20
2019-03-09T13:28:54.351Z,59.10
2019-03-09T13:30:57.243Z,59.20
2019-03-09T13:33:00.589Z,59.40
2019-03-09T13:35:04.248Z,59.40
2019-03-09T13:37:07.679Z,59.30
2019-03-09T13:39:11.376Z,60.00
2019-03-09T13:41:14.243Z,59.30
2019-03-09T13:43:17.145Z,59.40
2019-03-09T13:45:20.230Z,59.50
2019-03-09T13:47:23.216Z,59.50
2019-03-09T13:49:26.092Z,59.60
2019-03-09T13:51:29.382Z,59.70
2019-03-09T13:53:33.036Z,59.80
2019-03-09T13:55:36.149Z,59.80
2019-03-09T13:57:39.124Z,59.90
2019-03-09T13:59:42.020Z,60.00
2019-03-09T14:01:44.933Z,60.10
2019-03-09T14:03:48.619Z,60.80
2019-03-09T14:05:52.276Z,60.50
2019-03-09T14:07:56.011Z,60.40
2019-03-09T14:10:00.348Z,61.30
2019-03-09T14:12:03.109Z,60.60
2019-03-09T14:14:07.834Z,60.70
2019-03-09T14:16:12.245Z,60.90
2019-03-09T14:18:16.085Z,61.50
2019-03-09T14:20:18.982Z,61.00
2019-03-09T14:22:21.887Z,61.10
2019-03-09T14:24:24.972Z,61.30
2019-03-09T14:26:27.906Z,61.30
2019-03-09T14:28:31.672Z,61.50
2019-03-09T14:30:34.546Z,61.40
2019-03-09T14:32:38.360Z,61.40
2019-03-09T14:34:41.366Z,61.50
2019-03-09T14:36:45.023Z,61.70
2019-03-09T14:38:48.566Z,61.70
2019-03-09T14:40:52.751Z,61.60
2019-03-09T14:42:55.645Z,61.50
2019-03-09T14:44:59.300Z,61.20
2019-03-09T14:47:02.249Z,60.80
2019-03-09T14:49:05.320Z,60.40
2019-03-09T14:51:09.031Z,59.70
2019-03-09T14:53:12.700Z,59.60
2019-03-09T14:55:16.637Z,59.50
2019-03-09T14:57:19.513Z,59.40
2019-03-09T14:59:22.429Z,59.40
2019-03-09T15:01:25.331Z,59.20
2019-03-09T15:03:28.223Z,59.80
2019-03-09T15:05:31.208Z,59.20
2019-03-09T15:07:34.088Z,59.10
2019-03-09T15:09:36.972Z,59.10
2019-03-09T15:11:40.056Z,59.10
2019-03-09T15:13:43.036Z,59.20
2019-03-09T15:15:45.968Z,59.20
2019-03-09T15:17:48.911Z,59.40
2019-03-09T15:19:51.792Z,59.40
2019-03-09T15:21:54.653Z,59.50
2019-03-09T15:23:57.572Z,59.60
2019-03-09T15:26:00.653Z,59.70
2019-03-09T15:28:04.292Z,59.80
2019-03-09T15:30:08.057Z,59.70
2019-03-09T15:32:11.730Z,59.90
2019-03-09T15:34:16.176Z,59.80
2019-03-09T15:36:19.827Z,59.90
2019-03-09T15:38:22.745Z,59.80
2019-03-09T15:40:26.439Z,59.80
2019-03-09T15:42:30.227Z,59.70
2019-03-09T15:44:33.893Z,59.80
2019-03-09T15:46:36.796Z,59.80
2019-03-09T15:48:39.891Z,59.70
2019-03-09T15:50:43.617Z,59.40
2019-03-09T15:52:47.706Z,59.20
2019-03-09T15:54:51.381Z,59.00
2019-03-09T15:56:56.152Z,58.80
2019-03-09T15:58:59.791Z,58.60
2019-03-09T16:01:02.807Z,58.60
2019-03-09T16:03:07.283Z,58.70
2019-03-09T16:05:10.396Z,58.20
2019-03-09T16:07:13.321Z,58.00
2019-03-09T16:09:16.969Z,58.00
2019-03-09T16:11:19.854Z,58.00
2019-03-09T16:13:24.406Z,58.00
2019-03-09T16:15:26.148Z,58.00
2019-03-09T16:17:29.053Z,58.00
2019-03-09T16:19:32.317Z,57.90
2019-03-09T16:21:35.226Z,57.70
2019-03-09T16:23:38.927Z,57.60
2019-03-09T16:25:43.013Z,57.50
2019-03-09T16:27:45.887Z,57.50
2019-03-09T16:29:48.763Z,57.40
2019-03-09T16:31:51.685Z,57.40
2019-03-09T16:33:55.528Z,57.50
2019-03-09T16:35:59.352Z,57.50
2019-03-09T16:38:02.369Z,57.50
2019-03-09T16:40:06.027Z,57.50
2019-03-09T16:42:08.901Z,57.40
2019-03-09T16:44:11.908Z,57.30
2019-03-09T16:46:14.941Z,57.30
2019-03-09T16:48:17.824Z,57.30
2019-03-09T16:50:21.187Z,57.20
2019-03-09T16:52:24.879Z,57.00
2019-03-09T16:54:28.529Z,56.80
2019-03-09T16:56:31.432Z,56.80
2019-03-09T16:58:34.316Z,56.60
2019-03-09T17:00:37.227Z,56.40
2019-03-09T17:02:41.316Z,56.60
2019-03-09T17:04:44.296Z,55.90
2019-03-09T17:06:47.303Z,55.70
2019-03-09T17:08:51.435Z,55.30
2019-03-09T17:10:55.216Z,55.20
2019-03-09T17:12:58.849Z,54.90
2019-03-09T17:15:02.092Z,54.80
2019-03-09T17:17:05.012Z,54.60
2019-03-09T17:19:08.071Z,54.50
2019-03-09T17:21:12.453Z,55.30
2019-03-09T17:23:15.335Z,55.20
2019-03-09T17:25:18.223Z,54.80
2019-03-09T17:27:21.152Z,54.40
2019-03-09T17:29:24.114Z,54.10
2019-03-09T17:31:27.805Z,53.70
2019-03-09T17:33:31.921Z,53.50
2019-03-09T17:35:35.578Z,54.00
2019-03-09T17:37:39.185Z,53.30
2019-03-09T17:39:42.099Z,53.10
2019-03-09T17:41:45.185Z,52.90
2019-03-09T17:43:48.848Z,52.60
2019-03-09T17:45:51.935Z,52.60
2019-03-09T17:47:55.620Z,52.20
2019-03-09T17:49:58.508Z,52.10
2019-03-09T17:52:01.449Z,52.00
2019-03-09T17:54:04.324Z,51.80
2019-03-09T17:56:07.206Z,51.60
2019-03-09T17:58:10.132Z,51.50
2019-03-09T18:00:20.568Z,51.30
2019-03-09T18:02:23.456Z,51.20
2019-03-09T18:04:26.540Z,51.20
2019-03-09T18:06:29.424Z,51.20
2019-03-09T18:08:32.308Z,51.10
2019-03-09T18:10:52.867Z,51.10
2019-03-09T18:12:56.517Z,51.50
2019-03-09T18:14:59.519Z,51.50
2019-03-09T18:17:03.749Z,51.20
2019-03-09T18:19:07.448Z,51.10
2019-03-09T18:21:11.112Z,50.90
2019-03-09T18:23:14.040Z,50.80
2019-03-09T18:25:17.689Z,50.50
2019-03-09T18:27:20.612Z,50.60
2019-03-09T18:29:23.590Z,50.40
2019-03-09T18:31:27.228Z,50.20
2019-03-09T18:33:30.128Z,50.10
2019-03-09T18:35:33.158Z,50.10
2019-03-09T18:37:36.811Z,49.90
2019-03-09T18:39:39.692Z,49.80
2019-03-09T18:41:43.951Z,49.70
2019-03-09T18:43:47.582Z,49.70
2019-03-09T18:45:50.464Z,49.60
2019-03-09T18:47:53.496Z,49.60
2019-03-09T18:49:58.208Z,49.60
2019-03-09T18:52:01.097Z,49.50
2019-03-09T18:54:04.810Z,50.20
2019-03-09T18:56:08.768Z,50.40
2019-03-09T18:58:11.807Z,50.40
2019-03-09T19:00:16.402Z,49.60
2019-03-09T19:02:19.310Z,49.90
2019-03-09T19:04:22.960Z,50.10
2019-03-09T19:06:25.904Z,49.80
2019-03-09T19:08:28.844Z,49.80
2019-03-09T19:10:31.732Z,49.80
2019-03-09T19:12:35.956Z,50.00
2019-03-09T19:14:41.360Z,50.50
2019-03-09T19:16:42.584Z,49.80
2019-03-09T19:18:45.605Z,49.80
2019-03-09T19:20:48.604Z,49.80
2019-03-09T19:22:52.255Z,49.80
2019-03-09T19:24:55.360Z,49.80
2019-03-09T19:26:58.240Z,49.80
2019-03-09T19:29:01.131Z,49.80
2019-03-09T19:31:04.144Z,49.80
2019-03-09T19:33:07.776Z,50.50
2019-03-09T19:35:11.041Z,49.90
2019-03-09T19:37:13.996Z,50.00
2019-03-09T19:39:16.969Z,50.00
2019-03-09T19:41:22.243Z,50.10
2019-03-09T19:43:23.803Z,50.20
2019-03-09T19:45:26.751Z,50.10
2019-03-09T19:47:29.733Z,50.10
2019-03-09T19:49:33.127Z,50.20
2019-03-09T19:51:36.056Z,50.20
2019-03-09T19:53:38.956Z,50.20
2019-03-09T19:55:42.196Z,50.20
2019-03-09T19:57:45.851Z,50.40
2019-03-09T19:59:48.720Z,50.40
2019-03-09T20:01:51.759Z,50.40
2019-03-09T20:03:55.395Z,50.40
2019-03-09T20:05:58.292Z,50.40
2019-03-09T20:08:01.231Z,50.50
2019-03-09T20:10:04.876Z,50.60
2019-03-09T20:12:07.767Z,51.40
2019-03-09T20:14:10.802Z,52.20
2019-03-09T20:16:13.791Z,52.20
2019-03-09T20:18:17.363Z,51.90
2019-03-09T20:20:20.950Z,51.90
2019-03-09T20:22:24.600Z,51.30
2019-03-09T20:24:27.768Z,51.30
2019-03-09T20:26:30.934Z,51.30
2019-03-09T20:28:34.704Z,51.60
2019-03-09T20:30:37.584Z,51.50
2019-03-09T20:32:40.513Z,51.60
2019-03-09T20:34:43.413Z,51.60
2019-03-09T20:36:47.179Z,51.70
2019-03-09T20:38:50.141Z,51.70
2019-03-09T20:40:54.832Z,51.80
2019-03-09T20:42:58.312Z,51.70
2019-03-09T20:45:01.307Z,51.90
2019-03-09T20:47:04.116Z,51.80
2019-03-09T20:49:07.850Z,51.70
2019-03-09T20:51:11.519Z,51.70
2019-03-09T20:53:14.391Z,51.60
2019-03-09T20:55:17.271Z,51.60
2019-03-09T20:57:20.366Z,51.60
2019-03-09T20:59:23.480Z,51.50
2019-03-09T21:01:27.152Z,51.50
2019-03-09T21:03:30.140Z,51.50
2019-03-09T21:05:33.125Z,51.50
2019-03-09T21:07:36.837Z,51.40
2019-03-09T21:09:39.737Z,51.40
2019-03-09T21:11:42.642Z,50.90
2019-03-09T21:13:45.533Z,51.40
2019-03-09T21:15:48.795Z,51.40
2019-03-09T21:17:51.699Z,52.00
2019-03-09T21:19:54.617Z,51.40
2019-03-09T21:21:58.315Z,51.30
2019-03-09T21:24:01.247Z,51.40
2019-03-09T21:26:04.152Z,51.40
2019-03-09T21:28:07.157Z,51.40
2019-03-09T21:30:11.589Z,51.40
2019-03-09T21:32:16.099Z,51.40
2019-03-09T21:34:19.779Z,51.70
2019-03-09T21:36:22.675Z,51.60
2019-03-09T21:38:25.804Z,51.80
2019-03-09T21:40:28.753Z,51.70
2019-03-09T21:42:32.474Z,51.60
2019-03-09T21:44:36.114Z,51.60
2019-03-09T21:46:39.132Z,51.60
2019-03-09T21:48:42.799Z,51.60
2019-03-09T21:50:46.145Z,52.20
2019-03-09T21:52:49.087Z,51.50
2019-03-09T21:54:52.315Z,51.60
2019-03-09T21:56:56.174Z,51.70
2019-03-09T21:58:59.513Z,51.60
2019-03-09T22:01:03.152Z,51.70
2019-03-09T22:03:06.275Z,52.30
2019-03-09T22:05:11.145Z,51.80
2019-03-09T22:07:15.232Z,51.80
2019-03-09T22:09:18.213Z,51.80
2019-03-09T22:11:21.823Z,51.80
2019-03-09T22:13:24.998Z,51.70
2019-03-09T22:15:29.110Z,52.00
2019-03-09T22:17:33.114Z,51.70
2019-03-09T22:19:36.249Z,51.70
2019-03-09T22:21:39.136Z,51.60
2019-03-09T22:23:44.352Z,51.60
2019-03-09T22:25:45.354Z,51.60
2019-03-09T22:27:49.613Z,51.70
2019-03-09T22:29:52.652Z,51.60
2019-03-09T22:31:56.671Z,51.60
2019-03-09T22:33:59.950Z,51.60
2019-03-09T22:36:04.122Z,51.60
2019-03-09T22:38:07.119Z,51.60
2019-03-09T22:40:12.247Z,51.60
2019-03-09T22:42:15.244Z,51.60
2019-03-09T22:44:19.425Z,52.10
2019-03-09T22:46:22.327Z,51.60
2019-03-09T22:48:25.336Z,51.60
2019-03-09T22:50:29.007Z,52.30
2019-03-09T22:52:32.677Z,51.80
2019-03-09T22:54:35.721Z,51.70
2019-03-09T22:56:39.376Z,51.90
2019-03-09T22:58:42.266Z,51.80
2019-03-09T23:00:45.226Z,51.90
2019-03-09T23:02:48.119Z,52.00
2019-03-09T23:04:50.996Z,52.00
2019-03-09T23:06:53.903Z,52.10
2019-03-09T23:08:58.380Z,52.30
2019-03-09T23:11:01.463Z,52.30
2019-03-09T23:13:04.403Z,52.30
2019-03-09T23:15:08.087Z,52.60
2019-03-09T23:17:11.098Z,52.60
2019-03-09T23:19:14.753Z,52.80
2019-03-09T23:21:17.653Z,52.80
2019-03-09T23:23:21.743Z,53.20
2019-03-09T23:25:25.355Z,53.00
2019-03-09T23:27:30.420Z,53.30
2019-03-09T23:29:33.961Z,53.20
2019-03-09T23:31:37.065Z,53.40
2019-03-09T23:33:39.997Z,53.50
2019-03-09T23:35:42.869Z,53.60
2019-03-09T23:37:46.736Z,53.80
2019-03-09T23:39:50.256Z,54.60
2019-03-09T23:41:53.899Z,54.30
2019-03-09T23:43:57.013Z,54.30
2019-03-09T23:46:02.087Z,54.60
2019-03-09T23:48:04.975Z,54.50
2019-03-09T23:50:07.982Z,54.60
2019-03-09T23:52:10.879Z,54.80
2019-03-09T23:54:13.760Z,54.90
2019-03-09T23:56:16.756Z,55.00
2019-03-09T23:58:19.765Z,55.10
